createdAt,value
2022-09-03T00:01:01.688Z,0.90
2022-09-03T00:04:20.630Z,0.60
2022-09-03T00:08:06.643Z,0.65
2022-09-03T00:11:24.115Z,0.63
2022-09-03T00:14:41.803Z,0.70
2022-09-03T00:18:00.631Z,0.77
2022-09-03T00:21:14.431Z,0.93
2022-09-03T00:24:23.225Z,0.60
2022-09-03T00:27:29.683Z,0.93
2022-09-03T00:30:35.478Z,0.65
2022-09-03T00:33:42.320Z,0.77
2022-09-03T00:36:47.449Z,0.80
2022-09-03T00:39:51.989Z,0.60
2022-09-03T00:43:46.392Z,0.80
2022-09-03T00:47:25.721Z,0.70
2022-09-03T00:50:46.990Z,0.70
2022-09-03T00:54:15.313Z,0.80
2022-09-03T00:57:56.959Z,0.60
2022-09-03T01:01:16.852Z,0.80
2022-09-03T01:04:59.419Z,0.70
2022-09-03T01:08:36.952Z,0.70
2022-09-03T01:12:25.492Z,0.88
2022-09-03T01:15:45.933Z,0.70
2022-09-03T01:19:28.909Z,0.70
2022-09-03T01:23:04.431Z,0.60
2022-09-03T01:26:29.277Z,0.70
2022-09-03T01:30:18.421Z,0.65
2022-09-03T01:33:49.728Z,0.73
2022-09-03T01:37:08.267Z,0.70
2022-09-03T01:40:44.578Z,0.70
2022-09-03T01:44:22.271Z,0.80
2022-09-03T01:48:02.624Z,0.70
2022-09-03T01:51:25.817Z,0.60
2022-09-03T01:54:56.082Z,0.70
2022-09-03T01:58:27.417Z,0.73
2022-09-03T02:01:45.179Z,0.52
2022-09-03T02:05:04.078Z,0.65
2022-09-03T02:08:11.803Z,0.70
2022-09-03T02:11:16.741Z,0.73
2022-09-03T02:14:22.270Z,0.70
2022-09-03T02:17:26.691Z,0.68
2022-09-03T02:20:32.269Z,0.60
2022-09-03T02:23:40.804Z,0.60
2022-09-03T02:26:46.909Z,0.70
2022-09-03T02:29:51.964Z,0.55
2022-09-03T02:32:56.592Z,0.60
2022-09-03T02:36:03.880Z,0.73
2022-09-03T02:39:09.292Z,0.68
2022-09-03T02:42:15.735Z,0.80
2022-09-03T02:45:30.051Z,0.70
2022-09-03T02:48:35.649Z,0.80
2022-09-03T02:51:44.050Z,0.70
2022-09-03T02:54:48.892Z,0.80
2022-09-03T02:57:54.009Z,0.50
2022-09-03T03:00:58.926Z,0.57
2022-09-03T03:04:04.093Z,0.77
2022-09-03T03:07:08.840Z,0.70
2022-09-03T03:10:13.817Z,0.77
2022-09-03T03:13:18.983Z,0.88
2022-09-03T03:16:24.006Z,0.57
2022-09-03T03:19:29.007Z,0.60
2022-09-03T03:22:34.431Z,0.60
2022-09-03T03:25:40.672Z,0.65
2022-09-03T03:28:48.827Z,0.60
2022-09-03T03:31:54.420Z,0.77
2022-09-03T03:34:58.962Z,0.88
2022-09-03T03:38:05.230Z,0.60
2022-09-03T03:41:13.916Z,0.80
2022-09-03T03:44:20.331Z,1.02
2022-09-03T03:47:25.080Z,0.75
2022-09-03T03:50:29.920Z,0.60
2022-09-03T03:53:36.749Z,0.60
2022-09-03T03:56:41.367Z,0.65
2022-09-03T03:59:47.571Z,0.55
2022-09-03T04:02:52.003Z,0.90
2022-09-03T04:05:59.320Z,0.70
2022-09-03T04:09:03.987Z,0.82
2022-09-03T04:12:10.249Z,0.52
2022-09-03T04:15:15.091Z,0.60
2022-09-03T04:18:19.945Z,0.60
2022-09-03T04:21:28.638Z,0.80
2022-09-03T04:24:33.441Z,0.80
2022-09-03T04:27:38.463Z,0.77
2022-09-03T04:30:43.506Z,0.52
2022-09-03T04:33:52.552Z,0.88
2022-09-03T04:37:00.290Z,0.70
2022-09-03T04:40:05.943Z,0.60
2022-09-03T04:43:10.615Z,0.60
2022-09-03T04:46:18.373Z,0.73
2022-09-03T04:49:25.026Z,0.65
2022-09-03T04:52:31.532Z,0.68
2022-09-03T04:55:37.936Z,0.60
2022-09-03T04:58:44.263Z,0.70
2022-09-03T05:01:49.187Z,0.77
2022-09-03T05:04:54.270Z,0.70
2022-09-03T05:08:01.759Z,0.73
2022-09-03T05:11:07.904Z,0.70
2022-09-03T05:14:12.773Z,0.47
2022-09-03T05:17:17.684Z,0.70
2022-09-03T05:20:22.912Z,0.60
2022-09-03T05:23:34.296Z,0.60
2022-09-03T05:26:43.363Z,0.60
2022-09-03T05:29:48.806Z,0.70
2022-09-03T05:32:53.788Z,0.52
2022-09-03T05:36:04.115Z,0.70
2022-09-03T05:39:08.795Z,0.80
2022-09-03T05:42:14.402Z,0.70
2022-09-03T05:45:19.297Z,0.80
2022-09-03T05:48:24.229Z,0.65
2022-09-03T05:51:30.229Z,0.85
2022-09-03T05:54:35.047Z,0.60
2022-09-03T05:57:39.847Z,0.57
2022-09-03T06:00:44.289Z,0.60
2022-09-03T06:04:04.970Z,0.55
2022-09-03T06:07:10.308Z,0.75
2022-09-03T06:10:17.329Z,0.57
2022-09-03T06:13:21.721Z,0.63
2022-09-03T06:16:30.737Z,0.75
2022-09-03T06:19:37.187Z,0.90
2022-09-03T06:22:41.887Z,0.70
2022-09-03T06:25:46.591Z,0.80
2022-09-03T06:28:55.836Z,0.70
2022-09-03T06:32:02.265Z,0.52
2022-09-03T06:35:08.136Z,0.70
2022-09-03T06:38:14.538Z,0.70
2022-09-03T06:41:31.168Z,0.90
2022-09-03T06:44:35.346Z,0.95
2022-09-03T06:47:39.979Z,0.65
2022-09-03T06:50:44.811Z,0.60
2022-09-03T06:53:52.806Z,0.70
2022-09-03T06:56:58.666Z,0.90
2022-09-03T07:00:04.302Z,0.80
2022-09-03T07:03:08.503Z,0.80
2022-09-03T07:06:19.463Z,0.90
2022-09-03T07:09:24.297Z,0.80
2022-09-03T07:12:28.574Z,0.60
2022-09-03T07:15:34.059Z,0.77
2022-09-03T07:18:39.766Z,0.93
2022-09-03T07:21:49.558Z,0.70
2022-09-03T07:24:54.801Z,0.90
2022-09-03T07:28:00.082Z,0.90
2022-09-03T07:31:26.125Z,0.82
2022-09-03T07:34:30.936Z,0.60
2022-09-03T07:37:35.594Z,0.63
2022-09-03T07:40:40.531Z,0.70
2022-09-03T07:43:49.977Z,0.60
2022-09-03T07:46:56.577Z,0.63
2022-09-03T07:50:01.213Z,0.43
2022-09-03T07:53:05.926Z,0.70
2022-09-03T07:56:11.579Z,0.90
2022-09-03T07:59:16.056Z,0.70
2022-09-03T08:02:20.799Z,0.50
2022-09-03T08:05:26.260Z,0.63
2022-09-03T08:08:34.554Z,0.73
2022-09-03T08:11:43.531Z,0.63
2022-09-03T08:14:48.416Z,0.57
2022-09-03T08:17:53.353Z,0.40
2022-09-03T08:21:00.447Z,0.55
2022-09-03T08:24:05.755Z,0.60
2022-09-03T08:27:10.509Z,0.50
2022-09-03T08:30:15.186Z,0.63
2022-09-03T08:33:45.854Z,0.47
2022-09-03T08:36:52.291Z,0.70
2022-09-03T08:39:56.619Z,0.50
2022-09-03T08:43:18.810Z,0.60
2022-09-03T08:46:34.593Z,0.80
2022-09-03T08:49:44.440Z,0.50
2022-09-03T08:53:21.866Z,0.70
2022-09-03T08:56:29.308Z,0.65
2022-09-03T08:59:33.747Z,0.70
2022-09-03T09:02:50.123Z,0.55
2022-09-03T09:06:26.728Z,0.50
2022-09-03T09:09:35.808Z,0.55
2022-09-03T09:13:09.952Z,0.50
2022-09-03T09:16:54.571Z,0.50
2022-09-03T09:20:02.180Z,0.40
2022-09-03T09:23:13.845Z,0.47
2022-09-03T09:26:21.963Z,0.50
2022-09-03T09:29:35.090Z,0.60
2022-09-03T09:32:39.927Z,0.40
2022-09-03T09:35:50.435Z,0.55
2022-09-03T09:38:56.364Z,0.50
2022-09-03T09:42:11.132Z,0.60
2022-09-03T09:45:15.652Z,0.60
2022-09-03T09:48:31.658Z,0.40
2022-09-03T09:51:36.376Z,0.52
2022-09-03T09:54:44.086Z,0.40
2022-09-03T09:57:48.359Z,0.32
2022-09-03T10:01:04.092Z,0.55
2022-09-03T10:04:33.021Z,0.50
2022-09-03T10:07:38.152Z,0.50
2022-09-03T10:10:49.802Z,0.70
2022-09-03T10:13:55.824Z,0.60
2022-09-03T10:17:39.692Z,0.45
2022-09-03T10:20:58.861Z,0.30
2022-09-03T10:24:28.903Z,0.60
2022-09-03T10:27:33.963Z,0.55
2022-09-03T10:31:00.270Z,0.68
2022-09-03T10:34:37.717Z,0.60
2022-09-03T10:38:06.912Z,0.60
2022-09-03T10:41:41.199Z,0.63
2022-09-03T10:45:20.690Z,0.38
2022-09-03T10:48:43.963Z,0.60
2022-09-03T10:52:07.723Z,0.50
2022-09-03T10:55:36.349Z,0.47
2022-09-03T10:59:28.964Z,0.40
2022-09-03T11:03:07.469Z,0.32
2022-09-03T11:06:25.679Z,0.52
2022-09-03T11:10:00.624Z,0.70
2022-09-03T11:13:09.058Z,0.50
2022-09-03T11:16:27.014Z,0.63
2022-09-03T11:19:41.630Z,0.50
2022-09-03T11:22:48.759Z,0.60
2022-09-03T11:25:59.232Z,0.70
2022-09-03T11:30:00.343Z,0.80
2022-09-03T11:33:11.058Z,0.65
2022-09-03T11:36:36.054Z,0.70
2022-09-03T11:39:40.942Z,0.60
2022-09-03T11:42:46.555Z,0.70
2022-09-03T11:46:27.956Z,0.70
2022-09-03T11:49:33.574Z,1.10
2022-09-03T11:52:40.607Z,0.60
2022-09-03T11:56:02.234Z,0.70
2022-09-03T11:59:13.820Z,0.60
2022-09-03T12:02:35.873Z,0.60
2022-09-03T12:06:10.567Z,0.60
2022-09-03T12:09:53.389Z,0.75
2022-09-03T12:13:05.408Z,0.80
2022-09-03T12:16:31.020Z,1.02
2022-09-03T12:19:54.684Z,0.63
2022-09-03T12:22:59.180Z,0.82
2022-09-03T12:26:14.865Z,0.90
2022-09-03T12:29:31.205Z,1.30
2022-09-03T12:32:37.406Z,1.20
2022-09-03T12:42:51.045Z,0.90
2022-09-03T12:46:12.333Z,0.90
2022-09-03T12:49:33.133Z,0.85
2022-09-03T12:53:02.717Z,0.70
2022-09-03T12:56:11.089Z,0.77
2022-09-03T12:59:19.093Z,0.60
2022-09-03T13:02:46.311Z,0.75
2022-09-03T13:06:04.197Z,1.00
2022-09-03T13:09:10.415Z,1.10
2022-09-03T13:12:33.716Z,0.90
2022-09-03T13:15:38.408Z,0.90
2022-09-03T13:19:40.684Z,0.65
2022-09-03T13:23:25.049Z,1.00
2022-09-03T13:26:57.624Z,0.80
2022-09-03T13:30:17.308Z,0.80
2022-09-03T13:33:31.838Z,1.00
2022-09-03T13:36:59.719Z,0.80
2022-09-03T13:40:43.166Z,0.63
2022-09-03T13:44:24.772Z,0.70
2022-09-03T13:48:03.735Z,0.80
2022-09-03T13:51:24.039Z,0.70
2022-09-03T13:54:48.799Z,0.70
2022-09-03T13:58:11.520Z,1.10
2022-09-03T14:01:23.552Z,1.10
2022-09-03T14:05:11.711Z,0.95
2022-09-03T14:08:48.462Z,0.88
2022-09-03T14:12:06.411Z,0.98
2022-09-03T14:15:35.061Z,0.73
2022-09-03T14:19:14.084Z,1.00
2022-09-03T14:22:39.264Z,0.82
2022-09-03T14:25:56.700Z,0.80
2022-09-03T14:29:17.647Z,0.95
2022-09-03T14:32:42.331Z,0.93
2022-09-03T14:36:29.763Z,0.80
2022-09-03T14:39:52.302Z,0.77
2022-09-03T14:43:41.743Z,0.55
2022-09-03T14:47:06.306Z,0.82
2022-09-03T14:50:43.524Z,1.00
2022-09-03T14:54:26.114Z,1.08
2022-09-03T14:57:57.460Z,0.75
2022-09-03T15:01:29.308Z,0.68
2022-09-03T15:05:33.935Z,1.08
2022-09-03T15:09:06.493Z,0.90
2022-09-03T15:12:37.579Z,1.02
2022-09-03T15:15:42.134Z,0.70
2022-09-03T15:19:18.358Z,0.68
2022-09-03T15:22:49.341Z,0.80
2022-09-03T15:26:19.309Z,0.60
2022-09-03T15:30:10.786Z,0.80
2022-09-03T15:33:36.234Z,0.60
2022-09-03T15:36:53.761Z,0.73
2022-09-03T15:40:22.665Z,0.70
2022-09-03T15:43:32.378Z,0.60
2022-09-03T15:46:54.489Z,0.77
2022-09-03T15:50:27.352Z,0.82
2022-09-03T15:54:27.230Z,0.50
2022-09-03T15:58:09.395Z,0.70
2022-09-03T16:01:36.154Z,0.73
2022-09-03T16:04:55.990Z,0.80
2022-09-03T16:08:29.565Z,0.80
2022-09-03T16:11:52.211Z,0.73
2022-09-03T16:15:30.217Z,1.00
2022-09-03T16:18:55.749Z,0.80
2022-09-03T16:22:22.077Z,0.70
2022-09-03T16:26:11.578Z,0.68
2022-09-03T16:29:19.137Z,0.80
2022-09-03T16:32:33.078Z,0.77
2022-09-03T16:35:55.873Z,0.80
2022-09-03T16:39:46.194Z,0.60
2022-09-03T16:43:51.661Z,0.80
2022-09-03T16:47:29.628Z,0.80
2022-09-03T16:51:12.938Z,0.80
2022-09-03T16:54:27.699Z,0.70
2022-09-03T16:58:18.973Z,0.70
2022-09-03T17:01:44.523Z,0.88
2022-09-03T17:05:03.752Z,0.80
2022-09-03T17:08:47.494Z,0.88
2022-09-03T17:11:58.373Z,1.00
2022-09-03T17:15:40.620Z,0.95
2022-09-03T17:19:06.455Z,1.00
2022-09-03T17:22:52.344Z,1.00
2022-09-03T17:26:15.349Z,1.00
2022-09-03T17:29:54.849Z,0.88
2022-09-03T17:33:49.661Z,0.80
2022-09-03T17:37:18.832Z,1.17
2022-09-03T17:40:47.266Z,1.25
2022-09-03T17:44:07.689Z,0.90
2022-09-03T17:47:33.668Z,1.20
2022-09-03T17:51:59.907Z,1.52
2022-09-03T17:55:38.681Z,0.95
2022-09-03T17:58:51.817Z,1.00
2022-09-03T18:02:17.975Z,0.90
2022-09-03T18:05:40.239Z,1.00
2022-09-03T18:09:37.647Z,1.00
2022-09-03T18:13:14.097Z,1.15
2022-09-03T18:16:29.624Z,0.90
2022-09-03T18:20:13.969Z,0.88
2022-09-03T18:23:50.724Z,1.15
2022-09-03T18:27:30.086Z,1.00
2022-09-03T18:30:54.315Z,0.90
2022-09-03T18:34:17.501Z,1.08
2022-09-03T18:37:44.842Z,0.90
2022-09-03T18:41:27.512Z,0.95
2022-09-03T18:45:22.021Z,1.08
2022-09-03T18:49:47.092Z,0.90
2022-09-03T18:53:28.998Z,1.00
2022-09-03T18:57:09.113Z,1.30
2022-09-03T19:00:34.616Z,1.10
2022-09-03T19:04:40.630Z,1.10
2022-09-03T19:08:41.318Z,0.90
2022-09-03T19:12:11.288Z,1.20
2022-09-03T19:16:03.040Z,1.05
2022-09-03T19:19:55.447Z,1.00
2022-09-03T19:23:21.091Z,1.10
2022-09-03T19:27:23.634Z,1.10
2022-09-03T19:31:05.245Z,1.02
2022-09-03T19:34:53.959Z,1.10
2022-09-03T19:38:55.804Z,1.05
2022-09-03T19:42:46.759Z,1.02
2022-09-03T19:47:04.267Z,1.17
2022-09-03T19:50:40.721Z,0.93
2022-09-03T19:54:07.689Z,0.95
2022-09-03T19:57:35.023Z,1.10
2022-09-03T20:00:59.497Z,1.10
2022-09-03T20:04:32.691Z,1.27
2022-09-03T20:07:57.359Z,1.30
2022-09-03T20:11:03.812Z,1.00
2022-09-03T20:14:15.964Z,1.20
2022-09-03T20:17:34.176Z,1.13
2022-09-03T20:21:13.617Z,1.60
2022-09-03T20:24:40.023Z,1.20
2022-09-03T20:28:18.074Z,1.00
2022-09-03T20:31:40.107Z,1.10
2022-09-03T20:34:59.913Z,1.20
2022-09-03T20:38:21.051Z,1.00
2022-09-03T20:41:51.730Z,1.48
2022-09-03T20:45:05.136Z,1.10
2022-09-03T20:48:23.697Z,1.02
2022-09-03T20:51:41.191Z,1.30
2022-09-03T20:55:15.846Z,1.40
2022-09-03T20:58:49.755Z,1.20
2022-09-03T21:02:05.859Z,1.30
2022-09-03T21:05:31.641Z,1.23
2022-09-03T21:09:01.028Z,1.13
2022-09-03T21:12:35.654Z,1.20
2022-09-03T21:15:46.591Z,1.40
2022-09-03T21:19:04.630Z,1.35
2022-09-03T21:22:53.094Z,1.05
2022-09-03T21:26:27.230Z,1.10
2022-09-03T21:33:20.739Z,1.30
2022-09-03T21:36:33.871Z,1.08
2022-09-03T21:39:48.792Z,1.15
2022-09-03T21:43:17.452Z,1.30
2022-09-03T21:46:34.569Z,1.30
2022-09-03T21:49:58.821Z,1.45
2022-09-03T21:53:16.532Z,1.20
2022-09-03T21:56:33.291Z,1.15
2022-09-03T22:00:08.835Z,1.40
2022-09-03T22:03:19.054Z,1.35
2022-09-03T22:06:44.668Z,1.20
2022-09-03T22:10:12.993Z,1.40
2022-09-03T22:13:46.035Z,1.35
2022-09-03T22:17:11.257Z,1.10
2022-09-03T22:20:15.962Z,1.15
2022-09-03T22:23:30.784Z,1.42
2022-09-03T22:26:45.702Z,1.40
2022-09-03T22:30:06.093Z,1.20
2022-09-03T22:33:21.242Z,1.40
2022-09-03T22:36:42.641Z,1.17
2022-09-03T22:39:47.807Z,1.35
2022-09-03T22:43:01.675Z,1.33
2022-09-03T22:46:13.269Z,1.40
2022-09-03T22:49:59.999Z,1.40
2022-09-03T22:53:25.549Z,1.42
2022-09-03T22:56:36.815Z,1.25
2022-09-03T22:59:59.857Z,1.50
2022-09-03T23:03:37.713Z,1.33
2022-09-03T23:06:57.605Z,1.40
2022-09-03T23:10:11.538Z,1.63
2022-09-03T23:13:25.294Z,1.60
2022-09-03T23:19:50.346Z,1.52
2022-09-03T23:23:08.578Z,1.40
2022-09-03T23:26:51.419Z,1.38
2022-09-03T23:30:00.615Z,1.50
2022-09-03T23:33:05.432Z,1.42
2022-09-03T23:37:16.109Z,1.52
2022-09-03T23:40:39.840Z,1.23
2022-09-03T23:44:04.538Z,1.48
2022-09-03T23:47:33.909Z,1.23
2022-09-03T23:50:55.517Z,1.30
2022-09-03T23:54:39.800Z,1.45
2022-09-03T23:58:06.399Z,1.30
